createdAt,value
2023-07-11T00:00:53.969Z,82.85
2023-07-11T00:03:21.059Z,82.70
2023-07-11T00:06:13.486Z,83.34
2023-07-11T00:08:40.108Z,82.75
2023-07-11T00:11:11.750Z,83.29
2023-07-11T00:13:39.511Z,82.84
2023-07-11T00:16:10.698Z,83.57
2023-07-11T00:18:37.654Z,83.38
2023-07-11T00:21:05.318Z,83.76
2023-07-11T00:23:32.754Z,83.31
2023-07-11T00:25:59.315Z,83.28
2023-07-11T00:28:25.843Z,83.88
2023-07-11T00:30:52.682Z,83.87
2023-07-11T00:33:19.833Z,84.95
2023-07-11T00:35:50.898Z,85.52
2023-07-11T00:38:17.348Z,85.29
2023-07-11T00:40:46.009Z,85.82
2023-07-11T00:43:15.662Z,86.10
2023-07-11T00:46:00.899Z,86.28
2023-07-11T00:48:27.810Z,86.42
2023-07-11T00:50:57.248Z,86.63
2023-07-11T00:53:27.012Z,86.69
2023-07-11T00:55:55.084Z,86.50
2023-07-11T00:58:25.642Z,86.89
2023-07-11T01:00:53.371Z,87.04
2023-07-11T01:03:23.435Z,86.99
2023-07-11T01:05:50.214Z,87.15
2023-07-11T01:08:17.102Z,87.04
2023-07-11T01:10:43.662Z,87.34
2023-07-11T01:13:10.776Z,87.85
2023-07-11T01:15:37.251Z,87.91
2023-07-11T01:18:03.909Z,88.05
2023-07-11T01:20:30.660Z,88.02
2023-07-11T01:22:58.440Z,88.12
2023-07-11T01:25:25.130Z,88.22
2023-07-11T01:27:54.638Z,88.11
2023-07-11T01:30:23.270Z,88.34
2023-07-11T01:32:50.220Z,88.32
2023-07-11T01:35:17.176Z,88.62
2023-07-11T01:37:43.756Z,89.21
2023-07-11T01:40:10.636Z,89.65
2023-07-11T01:42:37.877Z,90.27
2023-07-11T01:45:04.793Z,90.73
2023-07-11T01:47:32.110Z,91.21
2023-07-11T01:49:58.681Z,91.47
2023-07-11T01:52:25.441Z,91.09
2023-07-11T01:54:52.543Z,91.51
2023-07-11T01:57:19.803Z,92.00
2023-07-11T01:59:46.412Z,91.64
2023-07-11T02:02:13.467Z,91.72
2023-07-11T02:04:40.679Z,91.47
2023-07-11T02:07:08.067Z,91.43
2023-07-11T02:09:35.684Z,91.23
2023-07-11T02:12:02.784Z,91.92
2023-07-11T02:14:29.289Z,92.25
2023-07-11T02:16:56.130Z,91.83
2023-07-11T02:19:24.842Z,91.76
2023-07-11T02:21:51.615Z,92.17
2023-07-11T02:24:19.058Z,91.79
2023-07-11T02:26:46.283Z,91.70
2023-07-11T02:29:13.259Z,91.67
2023-07-11T02:31:40.118Z,91.68
2023-07-11T02:34:06.907Z,91.89
2023-07-11T02:36:33.870Z,92.05
2023-07-11T02:39:00.809Z,91.98
2023-07-11T02:41:27.434Z,92.56
2023-07-11T02:43:54.561Z,93.20
2023-07-11T02:46:21.167Z,93.18
2023-07-11T02:48:47.827Z,93.85
2023-07-11T02:51:14.269Z,93.67
2023-07-11T02:53:40.881Z,93.43
2023-07-11T02:56:07.540Z,94.09
2023-07-11T02:58:34.446Z,93.73
2023-07-11T03:01:02.754Z,94.49
2023-07-11T03:03:29.645Z,94.49
2023-07-11T03:05:57.671Z,94.94
2023-07-11T03:08:24.961Z,95.36
2023-07-11T03:10:51.690Z,95.83
2023-07-11T03:13:19.571Z,96.37
2023-07-11T03:15:46.164Z,96.08
2023-07-11T03:18:13.934Z,96.79
2023-07-11T03:20:43.021Z,96.34
2023-07-11T03:23:11.915Z,96.35
2023-07-11T03:25:38.891Z,95.87
2023-07-11T03:28:05.959Z,96.68
2023-07-11T03:30:33.854Z,96.59
2023-07-11T03:33:00.568Z,96.33
2023-07-11T03:35:27.297Z,96.69
2023-07-11T03:37:53.781Z,96.91
2023-07-11T03:40:20.243Z,96.46
2023-07-11T03:42:47.055Z,97.23
2023-07-11T03:45:13.630Z,97.68
2023-07-11T03:47:40.063Z,98.42
2023-07-11T03:50:06.899Z,98.30
2023-07-11T03:52:33.537Z,98.81
2023-07-11T03:55:00.002Z,99.01
2023-07-11T03:57:26.480Z,98.74
2023-07-11T03:59:53.621Z,99.19
2023-07-11T04:02:20.116Z,99.32
2023-07-11T04:04:46.574Z,99.20
2023-07-11T04:07:13.104Z,99.38
2023-07-11T04:09:43.797Z,99.48
2023-07-11T04:12:11.557Z,98.17
2023-07-11T04:14:38.583Z,97.68
2023-07-11T04:17:05.710Z,96.97
2023-07-11T04:19:32.308Z,96.27
2023-07-11T04:21:58.892Z,95.36
2023-07-11T04:24:25.734Z,94.53
2023-07-11T04:26:52.221Z,93.61
2023-07-11T04:29:18.824Z,92.51
2023-07-11T04:31:45.481Z,91.58
2023-07-11T04:34:11.950Z,90.69
2023-07-11T04:36:38.383Z,89.70
2023-07-11T04:39:04.906Z,88.76
2023-07-11T04:41:31.511Z,88.17
2023-07-11T04:43:57.929Z,87.54
2023-07-11T04:46:24.917Z,87.30
2023-07-11T04:48:51.588Z,87.10
2023-07-11T04:51:18.418Z,86.74
2023-07-11T04:53:45.109Z,86.61
2023-07-11T04:56:12.106Z,85.99
2023-07-11T04:58:39.756Z,86.00
2023-07-11T05:01:12.302Z,86.15
2023-07-11T05:03:39.842Z,84.82
2023-07-11T05:06:07.624Z,84.55
2023-07-11T05:08:34.724Z,83.72
2023-07-11T05:11:06.518Z,84.18
2023-07-11T05:13:34.212Z,83.17
2023-07-11T05:16:02.600Z,82.89
2023-07-11T05:18:29.599Z,82.04
2023-07-11T05:20:57.785Z,81.83
2023-07-11T05:23:26.139Z,80.77
2023-07-11T05:25:53.003Z,80.59
2023-07-11T05:28:19.550Z,79.57
2023-07-11T05:30:46.036Z,78.82
2023-07-11T05:33:13.645Z,77.71
2023-07-11T05:35:48.043Z,77.45
2023-07-11T05:38:15.619Z,76.28
2023-07-11T05:40:42.950Z,75.64
2023-07-11T05:43:09.972Z,75.76
2023-07-11T05:45:36.388Z,74.60
2023-07-11T05:48:02.961Z,73.38
2023-07-11T05:50:29.499Z,72.91
2023-07-11T05:52:56.039Z,72.23
2023-07-11T05:55:23.063Z,71.82
2023-07-11T05:57:49.554Z,70.68
2023-07-11T06:00:16.483Z,69.14
2023-07-11T06:02:43.249Z,68.69
2023-07-11T06:05:09.997Z,67.33
2023-07-11T06:07:36.502Z,67.13
2023-07-11T06:10:03.726Z,65.87
2023-07-11T06:12:30.168Z,65.79
2023-07-11T06:14:56.693Z,65.36
2023-07-11T06:17:23.204Z,64.52
2023-07-11T06:19:49.685Z,63.64
2023-07-11T06:22:16.248Z,63.73
2023-07-11T06:24:42.874Z,64.17
2023-07-11T06:27:09.347Z,63.86
2023-07-11T06:29:36.357Z,62.94
2023-07-11T06:32:03.097Z,62.65
2023-07-11T06:34:29.651Z,62.79
2023-07-11T06:36:57.241Z,61.76
2023-07-11T06:39:26.938Z,62.12
2023-07-11T06:41:53.368Z,60.89
2023-07-11T06:44:19.930Z,60.17
2023-07-11T06:46:46.429Z,60.29
2023-07-11T06:49:13.014Z,59.84
2023-07-11T06:51:39.668Z,58.98
2023-07-11T06:54:06.130Z,58.09
2023-07-11T06:56:34.347Z,57.71
2023-07-11T06:59:00.933Z,56.96
2023-07-11T07:01:37.641Z,57.62
2023-07-11T07:04:06.124Z,57.06
2023-07-11T07:06:33.138Z,55.51
2023-07-11T07:09:01.335Z,55.02
2023-07-11T07:11:27.910Z,54.66
2023-07-11T07:14:04.259Z,55.31
2023-07-11T07:16:33.575Z,55.11
2023-07-11T07:19:00.435Z,54.28
2023-07-11T07:21:26.975Z,54.50
2023-07-11T07:23:53.500Z,54.24
2023-07-11T07:26:19.989Z,53.66
2023-07-11T07:28:46.765Z,54.12
2023-07-11T07:31:13.282Z,54.07
2023-07-11T07:33:39.889Z,53.48
2023-07-11T07:36:09.939Z,52.32
2023-07-11T07:38:36.617Z,52.42
2023-07-11T07:41:05.729Z,53.44
2023-07-11T07:43:33.928Z,52.05
2023-07-11T07:46:02.238Z,52.73
2023-07-11T07:48:29.007Z,51.31
2023-07-11T07:51:05.362Z,50.86
2023-07-11T07:53:32.774Z,51.04
2023-07-11T07:56:24.794Z,50.31
2023-07-11T07:58:54.442Z,50.22
2023-07-11T08:01:21.911Z,50.87
2023-07-11T08:03:48.981Z,51.83
2023-07-11T08:06:20.710Z,50.49
2023-07-11T08:08:48.825Z,49.11
2023-07-11T08:11:17.426Z,48.43
2023-07-11T08:16:28.896Z,49.63
2023-07-11T08:18:56.844Z,47.85
2023-07-11T08:21:24.295Z,48.21
2023-07-11T08:23:50.826Z,48.17
2023-07-11T08:26:17.364Z,46.18
2023-07-11T08:28:43.959Z,47.21
2023-07-11T08:31:11.232Z,46.75
2023-07-11T08:33:38.052Z,46.08
2023-07-11T08:36:04.660Z,45.30
2023-07-11T08:38:31.184Z,45.23
2023-07-11T08:40:57.778Z,44.54
2023-07-11T08:43:31.167Z,46.13
2023-07-11T08:46:13.264Z,44.32
2023-07-11T08:48:51.451Z,44.30
2023-07-11T08:51:35.298Z,44.55
2023-07-11T08:54:24.176Z,42.46
2023-07-11T08:56:51.968Z,42.29
2023-07-11T08:59:26.519Z,42.82
2023-07-11T09:02:13.205Z,42.43
2023-07-11T09:04:49.440Z,42.70
2023-07-11T09:07:37.363Z,41.75
2023-07-11T09:10:38.708Z,40.96
2023-07-11T09:13:46.244Z,40.68
2023-07-11T09:16:28.190Z,41.66
2023-07-11T09:19:13.026Z,40.20
2023-07-11T09:21:51.309Z,39.79
2023-07-11T09:24:32.412Z,39.09
2023-07-11T09:27:28.437Z,40.49
2023-07-11T09:29:59.421Z,40.09
2023-07-11T09:32:35.044Z,38.51
2023-07-11T09:35:35.974Z,38.76
2023-07-11T09:38:08.710Z,38.85
2023-07-11T09:40:43.365Z,37.08
2023-07-11T09:43:10.542Z,37.13
2023-07-11T09:45:42.776Z,36.20
2023-07-11T09:48:17.872Z,36.69
2023-07-11T09:51:14.338Z,37.36
2023-07-11T09:53:47.808Z,36.34
2023-07-11T09:56:17.941Z,36.98
2023-07-11T09:58:54.043Z,36.09
2023-07-11T10:01:34.837Z,35.07
2023-07-11T10:04:02.461Z,34.09
2023-07-11T10:09:16.295Z,32.78
2023-07-11T10:11:43.156Z,33.04
2023-07-11T10:14:20.735Z,33.61
2023-07-11T10:16:48.889Z,33.46
2023-07-11T10:19:17.481Z,35.42
2023-07-11T10:21:47.647Z,33.99
2023-07-11T10:24:25.589Z,34.51
2023-07-11T10:26:59.775Z,32.10
2023-07-11T10:29:30.239Z,31.78
2023-07-11T10:31:57.003Z,31.24
2023-07-11T10:34:30.824Z,31.96
2023-07-11T10:37:14.439Z,31.54
2023-07-11T10:39:46.810Z,32.59
2023-07-11T10:42:16.254Z,31.37
2023-07-11T10:44:45.252Z,31.11
2023-07-11T10:47:13.055Z,31.97
2023-07-11T10:49:46.164Z,31.80
2023-07-11T10:52:22.686Z,32.07
2023-07-11T10:55:06.922Z,32.42
2023-07-11T10:57:48.246Z,33.57
2023-07-11T11:00:17.536Z,32.40
2023-07-11T11:03:09.381Z,34.52
2023-07-11T11:05:57.789Z,31.88
2023-07-11T11:08:34.729Z,32.46
2023-07-11T11:11:19.204Z,31.17
2023-07-11T11:13:51.752Z,31.42
2023-07-11T11:16:30.456Z,31.16
2023-07-11T11:19:31.052Z,31.54
2023-07-11T11:22:03.780Z,32.49
2023-07-11T11:24:45.495Z,31.75
2023-07-11T11:27:33.650Z,32.17
2023-07-11T11:30:29.860Z,30.40
2023-07-11T11:33:14.449Z,29.94
2023-07-11T11:35:47.414Z,30.98
2023-07-11T11:38:43.144Z,31.92
2023-07-11T11:41:17.255Z,31.52
2023-07-11T11:51:24.965Z,30.75
2023-07-11T11:54:17.988Z,31.69
2023-07-11T11:56:48.790Z,31.58
2023-07-11T11:59:22.372Z,31.86
2023-07-11T12:01:57.638Z,31.24
2023-07-11T12:04:30.313Z,30.00
2023-07-11T12:07:03.202Z,31.79
2023-07-11T12:09:54.301Z,29.68
2023-07-11T12:12:47.324Z,31.30
2023-07-11T12:15:13.737Z,31.94
2023-07-11T12:17:40.336Z,32.36
2023-07-11T12:20:06.929Z,30.72
2023-07-11T12:22:53.326Z,30.52
2023-07-11T12:25:25.105Z,29.30
2023-07-11T12:27:54.822Z,28.97
2023-07-11T12:30:38.304Z,29.58
2023-07-11T12:33:23.252Z,29.22
2023-07-11T12:36:02.342Z,29.35
2023-07-11T12:38:46.369Z,29.02
2023-07-11T12:41:42.906Z,29.17
2023-07-11T12:44:14.454Z,30.65
2023-07-11T12:46:44.153Z,28.69
2023-07-11T12:49:20.581Z,27.86
2023-07-11T12:51:47.259Z,28.33
2023-07-11T12:54:19.308Z,28.46
2023-07-11T12:56:51.406Z,27.88
2023-07-11T12:59:20.927Z,27.83
2023-07-11T13:01:50.473Z,27.88
2023-07-11T13:04:36.958Z,30.14
2023-07-11T13:07:25.885Z,28.76
2023-07-11T13:09:54.829Z,27.61
2023-07-11T13:12:24.525Z,28.37
2023-07-11T13:14:52.317Z,28.85
2023-07-11T13:17:24.860Z,27.92
2023-07-11T13:20:01.588Z,27.67
2023-07-11T13:22:28.921Z,29.98
2023-07-11T13:25:00.157Z,29.05
2023-07-11T13:27:29.592Z,28.53
2023-07-11T13:29:56.148Z,27.30
2023-07-11T13:32:29.196Z,28.28
2023-07-11T13:35:02.260Z,27.95
2023-07-11T13:37:38.628Z,28.30
2023-07-11T13:40:05.876Z,28.32
2023-07-11T13:42:36.715Z,27.99
2023-07-11T13:45:18.382Z,27.55
2023-07-11T13:47:46.701Z,28.55
2023-07-11T13:50:16.359Z,31.28
2023-07-11T13:52:53.461Z,29.42
2023-07-11T13:55:39.986Z,29.89
2023-07-11T13:58:08.775Z,30.18
2023-07-11T14:00:52.554Z,30.07
2023-07-11T14:03:25.644Z,29.73
2023-07-11T14:05:56.785Z,29.25
2023-07-11T14:08:26.675Z,29.93
2023-07-11T14:10:53.664Z,29.19
2023-07-11T14:13:24.481Z,29.27
2023-07-11T14:15:55.839Z,29.29
2023-07-11T14:18:22.603Z,29.73
2023-07-11T14:20:49.337Z,29.96
2023-07-11T14:23:24.881Z,29.01
2023-07-11T14:25:52.145Z,30.84
2023-07-11T14:28:19.748Z,30.36
2023-07-11T14:30:46.918Z,30.25
2023-07-11T14:33:19.065Z,31.87
2023-07-11T14:35:46.618Z,31.19
2023-07-11T14:38:15.345Z,30.35
2023-07-11T14:40:42.522Z,30.26
2023-07-11T14:43:20.433Z,31.34
2023-07-11T14:45:46.865Z,31.26
2023-07-11T14:48:19.136Z,30.06
2023-07-11T14:50:48.065Z,31.26
2023-07-11T14:53:27.015Z,30.16
2023-07-11T14:58:22.762Z,30.65
2023-07-11T15:00:49.338Z,30.17
2023-07-11T15:03:25.251Z,30.67
2023-07-11T15:06:52.226Z,32.21
2023-07-11T15:16:26.386Z,31.37
2023-07-11T15:18:52.929Z,31.69
2023-07-11T15:21:19.436Z,31.45
2023-07-11T15:23:46.043Z,33.02
2023-07-11T15:26:12.516Z,31.54
2023-07-11T15:28:38.953Z,31.30
2023-07-11T15:31:06.314Z,31.17
2023-07-11T15:33:42.466Z,31.53
2023-07-11T15:36:10.143Z,31.47
2023-07-11T15:38:36.838Z,32.33
2023-07-11T15:41:08.324Z,31.62
2023-07-11T15:43:41.836Z,32.27
2023-07-11T15:46:13.823Z,32.66
2023-07-11T15:48:40.490Z,33.31
2023-07-11T15:51:07.790Z,32.71
2023-07-11T15:53:34.604Z,32.88
2023-07-11T15:56:01.234Z,33.12
2023-07-11T15:58:28.065Z,33.29
2023-07-11T16:00:55.973Z,34.20
2023-07-11T16:03:25.289Z,33.64
2023-07-11T16:05:53.926Z,33.42
2023-07-11T16:08:29.755Z,33.64
2023-07-11T16:11:01.388Z,33.61
2023-07-11T16:13:30.471Z,33.42
2023-07-11T16:16:00.294Z,34.61
2023-07-11T16:18:29.706Z,34.51
2023-07-11T16:20:56.515Z,34.68
2023-07-11T16:23:25.479Z,34.25
2023-07-11T16:25:53.103Z,34.63
2023-07-11T16:28:38.034Z,35.00
2023-07-11T16:31:06.018Z,34.84
2023-07-11T16:33:33.301Z,34.30
2023-07-11T16:36:01.004Z,33.96
2023-07-11T16:38:31.253Z,34.47
2023-07-11T16:40:59.628Z,34.95
2023-07-11T16:43:27.233Z,35.07
2023-07-11T16:45:53.923Z,34.54
2023-07-11T16:48:25.850Z,35.43
2023-07-11T16:50:55.128Z,36.38
2023-07-11T16:53:26.509Z,34.77
2023-07-11T16:55:55.485Z,36.36
2023-07-11T16:58:38.519Z,34.95
2023-07-11T17:01:05.886Z,35.14
2023-07-11T17:03:32.614Z,36.10
2023-07-11T17:05:59.264Z,35.52
2023-07-11T17:08:30.018Z,37.26
2023-07-11T17:10:56.502Z,36.80
2023-07-11T17:13:24.925Z,36.54
2023-07-11T17:15:51.926Z,36.52
2023-07-11T17:18:19.637Z,37.26
2023-07-11T17:20:47.216Z,37.00
2023-07-11T17:23:17.371Z,38.39
2023-07-11T17:25:45.039Z,37.59
2023-07-11T17:28:21.002Z,38.26
2023-07-11T17:30:48.652Z,37.43
2023-07-11T17:33:18.114Z,39.09
2023-07-11T17:35:45.285Z,37.11
2023-07-11T17:38:18.508Z,38.32
2023-07-11T17:40:45.376Z,37.66
2023-07-11T17:43:22.289Z,39.66
2023-07-11T17:48:27.341Z,40.12
2023-07-11T17:50:56.753Z,40.54
2023-07-11T17:53:24.020Z,40.30
2023-07-11T17:55:50.772Z,41.13
2023-07-11T17:58:43.577Z,40.30
2023-07-11T18:01:22.020Z,40.69
2023-07-11T18:03:49.435Z,40.85
2023-07-11T18:06:19.671Z,41.34
2023-07-11T18:08:46.351Z,41.65
2023-07-11T18:11:15.734Z,41.73
2023-07-11T18:13:43.541Z,42.28
2023-07-11T18:16:13.392Z,43.36
2023-07-11T18:18:40.086Z,43.07
2023-07-11T18:21:09.898Z,42.68
2023-07-11T18:23:36.550Z,44.17
2023-07-11T18:26:04.291Z,43.95
2023-07-11T18:28:30.738Z,42.79
2023-07-11T18:30:57.302Z,44.01
2023-07-11T18:33:23.875Z,43.69
2023-07-11T18:35:50.608Z,44.40
2023-07-11T18:38:20.489Z,44.26
2023-07-11T18:40:48.114Z,46.53
2023-07-11T18:43:14.966Z,45.75
2023-07-11T18:45:44.345Z,45.58
2023-07-11T18:48:12.387Z,44.29
2023-07-11T18:50:40.001Z,45.52
2023-07-11T18:53:06.916Z,45.40
2023-07-11T18:55:33.661Z,45.44
2023-07-11T18:58:00.266Z,44.47
2023-07-11T19:00:36.413Z,44.64
2023-07-11T19:03:06.774Z,45.51
2023-07-11T19:05:33.704Z,45.33
2023-07-11T19:08:00.179Z,45.56
2023-07-11T19:10:29.552Z,45.92
2023-07-11T19:12:57.085Z,46.29
2023-07-11T19:15:26.049Z,46.35
2023-07-11T19:18:00.204Z,46.38
2023-07-11T19:20:32.436Z,46.92
2023-07-11T19:23:05.952Z,47.18
2023-07-11T19:25:35.182Z,47.54
2023-07-11T19:28:26.981Z,47.13
2023-07-11T19:30:55.557Z,48.24
2023-07-11T19:33:22.197Z,49.20
2023-07-11T19:35:55.995Z,49.34
2023-07-11T19:38:25.506Z,50.21
2023-07-11T19:40:53.036Z,50.27
2023-07-11T19:43:19.889Z,50.05
2023-07-11T19:45:52.050Z,50.58
2023-07-11T19:48:21.151Z,51.17
2023-07-11T19:50:52.789Z,51.05
2023-07-11T19:53:21.294Z,51.78
2023-07-11T19:55:50.739Z,52.27
2023-07-11T19:58:19.923Z,53.05
2023-07-11T20:00:48.566Z,52.94
2023-07-11T20:03:16.549Z,53.34
2023-07-11T20:05:45.691Z,54.10
2023-07-11T20:08:26.537Z,53.76
2023-07-11T20:10:59.240Z,54.14
2023-07-11T20:13:26.957Z,54.63
2023-07-11T20:15:56.489Z,55.01
2023-07-11T20:18:26.267Z,55.19
2023-07-11T20:20:54.112Z,53.48
2023-07-11T20:23:21.475Z,55.98
2023-07-11T20:25:53.197Z,56.00
2023-07-11T20:28:21.667Z,56.34
2023-07-11T20:30:51.150Z,56.86
2023-07-11T20:33:18.004Z,57.43
2023-07-11T20:35:46.650Z,57.62
2023-07-11T20:38:15.125Z,57.77
2023-07-11T20:40:43.634Z,58.06
2023-07-11T20:43:11.719Z,58.10
2023-07-11T20:45:46.774Z,58.26
2023-07-11T20:48:21.840Z,58.74
2023-07-11T20:50:49.484Z,58.97
2023-07-11T20:53:16.257Z,59.04
2023-07-11T20:55:48.181Z,59.54
2023-07-11T20:58:17.061Z,59.84
2023-07-11T21:00:45.057Z,60.16
2023-07-11T21:03:17.632Z,60.51
2023-07-11T21:05:46.524Z,60.83
2023-07-11T21:08:25.573Z,60.97
2023-07-11T21:10:53.301Z,61.28
2023-07-11T21:13:19.876Z,61.61
2023-07-11T21:15:46.604Z,62.09
2023-07-11T21:18:14.852Z,62.27
2023-07-11T21:20:47.138Z,62.58
2023-07-11T21:23:14.226Z,62.54
2023-07-11T21:25:43.070Z,62.74
2023-07-11T21:28:32.527Z,62.61
2023-07-11T21:31:03.577Z,63.16
2023-07-11T21:33:31.455Z,63.50
2023-07-11T21:36:00.713Z,63.90
2023-07-11T21:38:29.804Z,64.44
2023-07-11T21:40:59.389Z,64.76
2023-07-11T21:43:26.775Z,64.96
2023-07-11T21:45:56.837Z,65.04
2023-07-11T21:48:23.303Z,62.10
2023-07-11T21:50:55.085Z,64.84
2023-07-11T21:53:25.074Z,66.02
2023-07-11T21:55:56.976Z,65.94
2023-07-11T21:58:26.100Z,65.84
2023-07-11T22:00:53.314Z,65.60
2023-07-11T22:03:23.352Z,66.03
2023-07-11T22:05:50.777Z,63.71
2023-07-11T22:08:22.478Z,65.35
2023-07-11T22:10:49.595Z,65.42
2023-07-11T22:13:19.283Z,65.43
2023-07-11T22:15:46.097Z,65.87
2023-07-11T22:18:21.831Z,65.21
2023-07-11T22:20:49.088Z,64.56
2023-07-11T22:23:15.884Z,63.93
2023-07-11T22:25:42.377Z,63.59
2023-07-11T22:28:14.750Z,63.92
2023-07-11T22:30:44.027Z,63.69
2023-07-11T22:33:12.692Z,64.04
2023-07-11T22:35:39.339Z,63.88
2023-07-11T22:38:06.883Z,64.41
2023-07-11T22:40:47.675Z,64.04
2023-07-11T22:43:20.143Z,64.57
2023-07-11T22:45:52.650Z,64.24
2023-07-11T22:48:22.283Z,64.34
2023-07-11T22:50:51.214Z,64.03
2023-07-11T22:53:21.265Z,64.13
2023-07-11T22:55:55.079Z,62.01
2023-07-11T22:58:29.917Z,64.01
2023-07-11T23:00:58.089Z,63.88
2023-07-11T23:03:25.712Z,64.10
2023-07-11T23:05:56.538Z,64.68
2023-07-11T23:08:26.205Z,64.50
2023-07-11T23:10:52.974Z,64.76
2023-07-11T23:13:19.512Z,64.53
2023-07-11T23:15:51.820Z,64.79
2023-07-11T23:18:21.155Z,64.72
2023-07-11T23:21:05.909Z,64.73
2023-07-11T23:23:32.515Z,65.09
2023-07-11T23:26:01.171Z,65.57
2023-07-11T23:28:33.309Z,65.53
2023-07-11T23:31:03.420Z,65.73
2023-07-11T23:33:30.348Z,65.99
2023-07-11T23:35:59.605Z,66.24
2023-07-11T23:38:27.237Z,66.04
2023-07-11T23:40:55.773Z,65.80
2023-07-11T23:43:39.932Z,66.08
2023-07-11T23:46:28.960Z,65.65
2023-07-11T23:48:56.245Z,66.10
2023-07-11T23:51:25.115Z,66.20
2023-07-11T23:53:52.244Z,66.74
2023-07-11T23:56:26.199Z,67.15
2023-07-11T23:58:53.231Z,67.04
